UAE216 KLAX-OMDB
Flight info
| Callsign | UAE216 |
|---|---|
| Flight time | N/A |
| Altitude | 31000 |
| Route | OSHNN1 BEALE Q842 WINEN DCT KU60O DCT KU87S/N0492F330 DCT KU09U DCT ISN DCT AMENU DCT 55N095W 58N090W DCT BODRA/N0495F350 DCT 65N070W/M085F350 DCT DARUB DCT 68N050W 6830N04000W 68N030W 67N020W 65N010W/M085F370 DCT IPTON/N0494F370 DCT RIDBO DCT TOPLA DCT AMROR N983 ELPOL DCT LENOV DCT KARIL DCT ADORU/N0492F390 UG80 EKI UN739 TUMER UT38 VESAR DCT BALMA UR655 LEBOR R655 KTN R785 RASLI P559 TRF R23 NEVOL N318 TAMRO T503 KSA M321 RESAL T533 RAPMA DCT KUVSO DCT RIBOT M550 GOLGU M318 RURAL Q317 LORID LORID1E |
| Aircraft | A388/J-V/N |
Departure
| Time | 2026-05-04 01:43 |
|---|---|
| Airport | Los Angeles International Airport (KLAX) |
Arrival
| Time | N/A |
|---|---|
| Airport | Dubai International Airport (OMDB) |
| Time | Latitude | Longitude | Altitude | Speed | Heading |
|---|---|---|---|---|---|
| 2026-05-04 00:47 | 33.94262 | -118.41118 | 98 ft | 0 kts | 83° |
| 2026-05-04 00:48 | 33.94395 | -118.41127 | 101 ft | 0 kts | 85° |
| 2026-05-04 00:48 | 33.94395 | -118.41132 | 100 ft | 0 kts | 84° |
| 2026-05-04 00:48 | 33.94395 | -118.41133 | 100 ft | 0 kts | 84° |
| 2026-05-04 01:32 | 33.94395 | -118.41134 | 98 ft | 2 kts | 84° |
| 2026-05-04 01:32 | 33.94392 | -118.41163 | 98 ft | 4 kts | 84° |
| 2026-05-04 01:32 | 33.94389 | -118.41193 | 97 ft | 4 kts | 84° |
| 2026-05-04 01:33 | 33.94387 | -118.41219 | 95 ft | 4 kts | 60° |
| 2026-05-04 01:33 | 33.94370 | -118.41233 | 95 ft | 4 kts | 4° |
| 2026-05-04 01:33 | 33.94345 | -118.41233 | 96 ft | 3 kts | 353° |
| 2026-05-04 01:33 | 33.94341 | -118.41232 | 97 ft | 0 kts | 353° |
| 2026-05-04 01:37 | 33.94342 | -118.41232 | 97 ft | 1 kts | 353° |
| 2026-05-04 01:37 | 33.94370 | -118.41236 | 96 ft | 7 kts | 353° |
| 2026-05-04 01:38 | 33.94407 | -118.41242 | 100 ft | 9 kts | 353° |
| 2026-05-04 01:38 | 33.94470 | -118.41251 | 99 ft | 9 kts | 353° |
| 2026-05-04 01:38 | 33.94542 | -118.41261 | 100 ft | 12 kts | 353° |
| 2026-05-04 01:38 | 33.94635 | -118.41275 | 100 ft | 15 kts | 352° |
| 2026-05-04 01:39 | 33.94730 | -118.41290 | 100 ft | 12 kts | 353° |
| 2026-05-04 01:39 | 33.94787 | -118.41259 | 102 ft | 9 kts | 62° |
| 2026-05-04 01:39 | 33.94804 | -118.41175 | 102 ft | 13 kts | 82° |
| 2026-05-04 01:39 | 33.94816 | -118.41056 | 102 ft | 15 kts | 83° |
| 2026-05-04 01:40 | 33.94830 | -118.40918 | 102 ft | 17 kts | 83° |
| 2026-05-04 01:40 | 33.94844 | -118.40778 | 99 ft | 16 kts | 83° |
| 2026-05-04 01:40 | 33.94859 | -118.40637 | 99 ft | 18 kts | 82° |
| 2026-05-04 01:40 | 33.94876 | -118.40482 | 102 ft | 20 kts | 83° |
| 2026-05-04 01:41 | 33.94893 | -118.40311 | 99 ft | 21 kts | 83° |
| 2026-05-04 01:41 | 33.94906 | -118.40182 | 100 ft | 15 kts | 83° |
| 2026-05-04 01:41 | 33.94919 | -118.40052 | 100 ft | 14 kts | 83° |
| 2026-05-04 01:41 | 33.94943 | -118.39938 | 99 ft | 13 kts | 40° |
| 2026-05-04 01:42 | 33.95019 | -118.39930 | 100 ft | 9 kts | 311° |
| 2026-05-04 01:42 | 33.95037 | -118.39990 | 99 ft | 7 kts | 268° |
| 2026-05-04 01:42 | 33.95033 | -118.40037 | 99 ft | 5 kts | 263° |
| 2026-05-04 01:42 | 33.95010 | -118.40268 | 103 ft | 60 kts | 263° |
| 2026-05-04 01:43 | 33.94931 | -118.41026 | 104 ft | 118 kts | 263° |
| 2026-05-04 01:43 | 33.94809 | -118.42177 | 112 ft | 154 kts | 262° |
| 2026-05-04 01:43 | 33.94664 | -118.43477 | 469 ft | 155 kts | 262° |
| 2026-05-04 01:43 | 33.94522 | -118.44779 | 903 ft | 155 kts | 262° |
| 2026-05-04 01:44 | 33.94392 | -118.46076 | 1304 ft | 162 kts | 263° |
| 2026-05-04 01:44 | 33.94311 | -118.47460 | 1642 ft | 170 kts | 268° |
| 2026-05-04 01:44 | 33.94285 | -118.48913 | 1876 ft | 178 kts | 268° |
| 2026-05-04 01:44 | 33.94249 | -118.50440 | 1956 ft | 187 kts | 267° |
| 2026-05-04 01:45 | 33.94140 | -118.52046 | 2012 ft | 197 kts | 264° |
| 2026-05-04 01:45 | 33.94001 | -118.53745 | 2095 ft | 212 kts | 264° |
| 2026-05-04 01:45 | 33.93699 | -118.57593 | 2465 ft | 247 kts | 264° |
| 2026-05-04 01:46 | 33.93539 | -118.59623 | 3019 ft | 250 kts | 264° |
| 2026-05-04 01:46 | 33.93173 | -118.61678 | 3554 ft | 252 kts | 244° |
| 2026-05-04 01:46 | 33.92075 | -118.63315 | 4176 ft | 255 kts | 217° |
| 2026-05-04 01:46 | 33.90434 | -118.64156 | 4753 ft | 263 kts | 190° |
| 2026-05-04 01:47 | 33.88580 | -118.64138 | 5200 ft | 270 kts | 177° |
| 2026-05-04 01:47 | 33.86696 | -118.63961 | 5706 ft | 272 kts | 178° |
| 2026-05-04 01:47 | 33.84798 | -118.63722 | 6175 ft | 279 kts | 170° |
| 2026-05-04 01:47 | 33.82967 | -118.62887 | 6686 ft | 285 kts | 152° |
| 2026-05-04 01:48 | 33.81337 | -118.61536 | 7295 ft | 284 kts | 147° |
| 2026-05-04 01:48 | 33.79709 | -118.60178 | 7849 ft | 285 kts | 149° |
| 2026-05-04 01:48 | 33.78071 | -118.58845 | 8418 ft | 285 kts | 149° |
| 2026-05-04 01:48 | 33.76417 | -118.57508 | 8945 ft | 287 kts | 149° |
| 2026-05-04 01:49 | 33.74758 | -118.56168 | 9488 ft | 288 kts | 149° |
| 2026-05-04 01:49 | 33.73095 | -118.54821 | 10020 ft | 289 kts | 149° |
| 2026-05-04 01:49 | 33.71408 | -118.53450 | 10290 ft | 300 kts | 147° |
| 2026-05-04 01:49 | 33.69869 | -118.51653 | 10421 ft | 320 kts | 129° |
| 2026-05-04 01:50 | 33.68790 | -118.49241 | 10540 ft | 338 kts | 112° |
| 2026-05-04 01:50 | 33.68033 | -118.46509 | 10688 ft | 351 kts | 111° |
| 2026-05-04 01:50 | 33.67236 | -118.43718 | 11071 ft | 355 kts | 112° |
| 2026-05-04 01:50 | 33.66416 | -118.40915 | 11521 ft | 357 kts | 112° |
| 2026-05-04 01:51 | 33.65584 | -118.38100 | 11968 ft | 359 kts | 113° |
| 2026-05-04 01:51 | 33.64842 | -118.35220 | 12393 ft | 364 kts | 106° |
| 2026-05-04 01:51 | 33.64467 | -118.32194 | 12846 ft | 370 kts | 97° |
| 2026-05-04 01:51 | 33.64443 | -118.29092 | 13271 ft | 374 kts | 92° |
| 2026-05-04 01:52 | 33.64464 | -118.25954 | 13696 ft | 377 kts | 93° |
| 2026-05-04 01:52 | 33.64468 | -118.22799 | 14057 ft | 380 kts | 93° |
| 2026-05-04 01:52 | 33.64768 | -118.19614 | 14319 ft | 390 kts | 76° |
| 2026-05-04 01:52 | 33.65900 | -118.16630 | 14627 ft | 398 kts | 56° |
| 2026-05-04 01:53 | 33.67759 | -118.14180 | 14940 ft | 400 kts | 37° |
| 2026-05-04 01:53 | 33.70047 | -118.12250 | 15286 ft | 402 kts | 30° |
| 2026-05-04 01:53 | 33.72422 | -118.10440 | 15602 ft | 406 kts | 30° |
| 2026-05-04 01:53 | 33.74787 | -118.08558 | 15938 ft | 410 kts | 32° |
| 2026-05-04 01:54 | 33.77134 | -118.06578 | 16233 ft | 414 kts | 33° |
| 2026-05-04 01:54 | 33.79479 | -118.04522 | 16486 ft | 419 kts | 33° |
| 2026-05-04 01:54 | 33.81825 | -118.02425 | 16830 ft | 422 kts | 33° |
| 2026-05-04 01:54 | 33.84188 | -118.00298 | 17183 ft | 426 kts | 33° |
| 2026-05-04 01:55 | 33.86568 | -117.98152 | 17494 ft | 429 kts | 33° |
| 2026-05-04 01:55 | 33.88954 | -117.96001 | 17960 ft | 429 kts | 33° |
| 2026-05-04 01:55 | 33.91351 | -117.93838 | 18248 ft | 432 kts | 32° |
| 2026-05-04 01:55 | 33.93765 | -117.91643 | 18513 ft | 436 kts | 33° |
| 2026-05-04 01:56 | 33.96185 | -117.89428 | 18805 ft | 438 kts | 33° |
| 2026-05-04 01:56 | 33.98587 | -117.87226 | 19117 ft | 440 kts | 33° |
| 2026-05-04 01:56 | 34.01062 | -117.84957 | 19405 ft | 443 kts | 33° |
| 2026-05-04 01:56 | 34.03519 | -117.82704 | 19664 ft | 445 kts | 32° |
| 2026-05-04 01:57 | 34.05992 | -117.80438 | 19943 ft | 447 kts | 32° |
| 2026-05-04 01:57 | 34.08436 | -117.78089 | 20196 ft | 453 kts | 39° |
| 2026-05-04 01:57 | 34.10616 | -117.75320 | 20461 ft | 459 kts | 48° |
| 2026-05-04 01:57 | 34.12614 | -117.72302 | 20706 ft | 461 kts | 48° |
| 2026-05-04 01:58 | 34.14639 | -117.69286 | 20966 ft | 464 kts | 48° |
| 2026-05-04 01:58 | 34.16680 | -117.66263 | 21234 ft | 466 kts | 48° |
| 2026-05-04 01:58 | 34.18732 | -117.63224 | 21510 ft | 468 kts | 48° |
| 2026-05-04 01:58 | 34.20795 | -117.60161 | 21703 ft | 471 kts | 48° |
| 2026-05-04 01:59 | 34.22834 | -117.57131 | 21999 ft | 472 kts | 48° |
| 2026-05-04 01:59 | 34.24910 | -117.54043 | 22188 ft | 474 kts | 48° |
| 2026-05-04 01:59 | 34.26994 | -117.50937 | 22370 ft | 477 kts | 48° |
| 2026-05-04 01:59 | 34.29082 | -117.47820 | 22674 ft | 479 kts | 48° |
| 2026-05-04 02:00 | 34.31188 | -117.44679 | 22872 ft | 481 kts | 49° |
| 2026-05-04 02:00 | 34.33300 | -117.41525 | 23097 ft | 484 kts | 49° |
| 2026-05-04 02:00 | 34.35423 | -117.38349 | 23329 ft | 486 kts | 49° |
| 2026-05-04 02:00 | 34.37553 | -117.35163 | 23552 ft | 489 kts | 48° |
| 2026-05-04 02:01 | 34.39697 | -117.31950 | 23761 ft | 490 kts | 48° |
| 2026-05-04 02:01 | 34.41840 | -117.28736 | 23973 ft | 492 kts | 48° |
| 2026-05-04 02:01 | 34.43993 | -117.25505 | 24163 ft | 493 kts | 48° |
| 2026-05-04 02:01 | 34.46153 | -117.22261 | 24407 ft | 495 kts | 48° |
| 2026-05-04 02:02 | 34.48316 | -117.19008 | 24632 ft | 497 kts | 48° |
| 2026-05-04 02:02 | 34.50485 | -117.15744 | 24830 ft | 497 kts | 48° |
| 2026-05-04 02:02 | 34.52647 | -117.12485 | 25121 ft | 497 kts | 48° |
| 2026-05-04 02:02 | 34.54821 | -117.09209 | 25305 ft | 500 kts | 47° |
| 2026-05-04 02:03 | 34.57037 | -117.05947 | 25539 ft | 501 kts | 46° |
| 2026-05-04 02:03 | 34.59278 | -117.02704 | 25807 ft | 502 kts | 46° |
| 2026-05-04 02:03 | 34.61522 | -116.99452 | 26024 ft | 503 kts | 46° |
| 2026-05-04 02:03 | 34.63771 | -116.96186 | 26178 ft | 506 kts | 46° |
| 2026-05-04 02:04 | 34.66032 | -116.92899 | 26485 ft | 507 kts | 46° |
| 2026-05-04 02:04 | 34.68293 | -116.89603 | 26744 ft | 509 kts | 46° |
| 2026-05-04 02:04 | 34.70561 | -116.86289 | 26968 ft | 511 kts | 46° |
| 2026-05-04 02:04 | 34.72841 | -116.82955 | 27205 ft | 514 kts | 46° |
| 2026-05-04 02:05 | 34.75126 | -116.79605 | 27517 ft | 515 kts | 46° |
| 2026-05-04 02:05 | 34.77418 | -116.76245 | 27796 ft | 517 kts | 46° |
| 2026-05-04 02:05 | 34.79720 | -116.72865 | 28069 ft | 519 kts | 46° |
| 2026-05-04 02:05 | 34.82027 | -116.69477 | 28347 ft | 521 kts | 46° |
| 2026-05-04 02:06 | 34.84342 | -116.66072 | 28614 ft | 523 kts | 46° |
| 2026-05-04 02:06 | 34.86675 | -116.62662 | 28897 ft | 524 kts | 45° |
| 2026-05-04 02:06 | 34.89079 | -116.59400 | 29136 ft | 525 kts | 43° |
| 2026-05-04 02:06 | 34.91569 | -116.56143 | 29378 ft | 528 kts | 42° |
| 2026-05-04 02:07 | 34.94072 | -116.52864 | 29738 ft | 528 kts | 42° |
| 2026-05-04 02:07 | 34.96560 | -116.49573 | 30025 ft | 529 kts | 43° |
| 2026-05-04 02:07 | 34.99057 | -116.46250 | 30166 ft | 533 kts | 43° |
| 2026-05-04 02:07 | 35.01562 | -116.42900 | 30365 ft | 536 kts | 43° |
| 2026-05-04 02:08 | 35.04079 | -116.39524 | 30524 ft | 539 kts | 43° |
| 2026-05-04 02:08 | 35.06606 | -116.36129 | 30723 ft | 542 kts | 43° |
| 2026-05-04 02:08 | 35.11734 | -116.29231 | 30768 ft | 555 kts | 43° |
| 2026-05-04 02:09 | 35.16984 | -116.22156 | 30769 ft | 568 kts | 43° |
| 2026-05-04 02:09 | 35.22278 | -116.14989 | 30769 ft | 568 kts | 43° |
| 2026-05-04 02:10 | 35.27577 | -116.07818 | 30776 ft | 567 kts | 43° |
| 2026-05-04 02:10 | 35.32858 | -116.00654 | 30790 ft | 567 kts | 43° |
| 2026-05-04 02:11 | 35.38136 | -115.93478 | 30791 ft | 566 kts | 43° |
| 2026-05-04 02:11 | 35.43400 | -115.86306 | 30800 ft | 565 kts | 43° |
| 2026-05-04 02:12 | 35.48652 | -115.79135 | 30802 ft | 565 kts | 43° |
| 2026-05-04 02:12 | 35.53902 | -115.71952 | 30808 ft | 565 kts | 43° |
| 2026-05-04 02:13 | 35.59147 | -115.64761 | 30810 ft | 565 kts | 43° |
| 2026-05-04 02:13 | 35.64382 | -115.57566 | 30804 ft | 564 kts | 44° |
| 2026-05-04 02:14 | 35.69610 | -115.50368 | 30809 ft | 564 kts | 44° |
| 2026-05-04 02:14 | 35.74836 | -115.43155 | 30805 ft | 565 kts | 43° |
| 2026-05-04 02:15 | 35.80017 | -115.35983 | 30806 ft | 564 kts | 44° |
| 2026-05-04 02:15 | 35.85230 | -115.28760 | 30804 ft | 563 kts | 44° |
| 2026-05-04 02:16 | 35.90430 | -115.21536 | 30790 ft | 565 kts | 44° |
| 2026-05-04 02:16 | 35.95644 | -115.14278 | 30791 ft | 565 kts | 44° |
| 2026-05-04 02:17 | 36.00856 | -115.07006 | 30803 ft | 565 kts | 44° |
| 2026-05-04 02:17 | 36.06063 | -114.99726 | 30738 ft | 565 kts | 44° |
| 2026-05-04 02:18 | 36.11258 | -114.92445 | 30672 ft | 564 kts | 44° |
| 2026-05-04 02:18 | 36.16540 | -114.85274 | 30686 ft | 560 kts | 37° |
| 2026-05-04 02:19 | 36.22725 | -114.79666 | 30691 ft | 546 kts | 21° |
| 2026-05-04 02:19 | 36.29426 | -114.75256 | 30663 ft | 546 kts | 20° |
| 2026-05-04 02:20 | 36.36128 | -114.70790 | 30647 ft | 547 kts | 20° |
| 2026-05-04 02:20 | 36.42828 | -114.66330 | 30639 ft | 546 kts | 20° |
| 2026-05-04 02:21 | 36.49526 | -114.61867 | 30656 ft | 549 kts | 20° |
| 2026-05-04 02:21 | 36.56265 | -114.57373 | 30633 ft | 550 kts | 20° |
| 2026-05-04 02:22 | 36.62994 | -114.52873 | 30641 ft | 549 kts | 20° |
| 2026-05-04 02:22 | 36.69679 | -114.48395 | 30650 ft | 549 kts | 20° |
| 2026-05-04 02:23 | 36.76254 | -114.43402 | 30664 ft | 556 kts | 25° |
| 2026-05-04 02:23 | 36.82808 | -114.38271 | 30672 ft | 556 kts | 25° |
| 2026-05-04 02:24 | 36.89356 | -114.33134 | 30671 ft | 555 kts | 25° |
| 2026-05-04 02:24 | 36.95897 | -114.27992 | 30671 ft | 555 kts | 25° |
| 2026-05-04 02:25 | 37.02428 | -114.22840 | 30715 ft | 555 kts | 25° |
| 2026-05-04 02:25 | 37.08945 | -114.17688 | 30698 ft | 553 kts | 25° |
| 2026-05-04 02:26 | 37.14400 | -114.13369 | 30714 ft | 554 kts | 25° |
| 2026-05-04 02:26 | 37.20916 | -114.08200 | 30721 ft | 554 kts | 25° |
| 2026-05-04 02:27 | 37.27416 | -114.03031 | 30739 ft | 552 kts | 26° |
| 2026-05-04 02:27 | 37.33828 | -113.97926 | 30769 ft | 547 kts | 27° |
| 2026-05-04 02:28 | 37.40303 | -113.92754 | 30766 ft | 548 kts | 27° |
| 2026-05-04 02:28 | 37.46702 | -113.87637 | 30786 ft | 549 kts | 27° |
| 2026-05-04 02:29 | 37.53136 | -113.82479 | 30784 ft | 548 kts | 27° |
| 2026-05-04 02:29 | 37.59520 | -113.77352 | 30791 ft | 539 kts | 28° |
| 2026-05-04 02:30 | 37.65841 | -113.72264 | 30810 ft | 539 kts | 28° |
| 2026-05-04 02:30 | 37.72153 | -113.67173 | 30810 ft | 538 kts | 28° |
| 2026-05-04 02:31 | 37.78462 | -113.62073 | 30812 ft | 538 kts | 28° |
| 2026-05-04 02:31 | 37.84731 | -113.56998 | 30812 ft | 527 kts | 30° |
| 2026-05-04 02:32 | 37.90881 | -113.52006 | 30815 ft | 526 kts | 30° |
| 2026-05-04 02:32 | 37.97175 | -113.47293 | 30814 ft | 526 kts | 26° |
| 2026-05-04 02:33 | 38.03572 | -113.42808 | 30809 ft | 525 kts | 26° |
| 2026-05-04 02:33 | 38.09938 | -113.38331 | 30820 ft | 520 kts | 28° |
| 2026-05-04 02:34 | 38.16235 | -113.33882 | 30821 ft | 518 kts | 28° |
| 2026-05-04 02:34 | 38.22543 | -113.29417 | 30838 ft | 520 kts | 28° |
| 2026-05-04 02:35 | 38.28858 | -113.24938 | 30857 ft | 519 kts | 28° |
| 2026-05-04 02:35 | 38.35127 | -113.20484 | 30877 ft | 520 kts | 28° |
| 2026-05-04 02:36 | 38.41435 | -113.15993 | 30897 ft | 519 kts | 28° |
| 2026-05-04 02:36 | 38.47737 | -113.11498 | 30904 ft | 519 kts | 28° |
| 2026-05-04 02:37 | 38.54072 | -113.06971 | 30893 ft | 524 kts | 28° |
| 2026-05-04 02:37 | 38.60441 | -113.02409 | 30868 ft | 526 kts | 29° |
| 2026-05-04 02:38 | 38.66818 | -112.97831 | 30838 ft | 525 kts | 29° |
| 2026-05-04 02:38 | 38.73191 | -112.93247 | 30780 ft | 525 kts | 29° |
| 2026-05-04 02:39 | 38.79566 | -112.88652 | 30769 ft | 526 kts | 29° |
| 2026-05-04 02:39 | 38.85930 | -112.84056 | 30776 ft | 523 kts | 29° |
| 2026-05-04 02:40 | 38.92259 | -112.79476 | 30769 ft | 521 kts | 29° |
| 2026-05-04 02:40 | 38.98591 | -112.74883 | 30763 ft | 524 kts | 29° |
| 2026-05-04 02:41 | 39.04933 | -112.70274 | 30771 ft | 523 kts | 29° |
| 2026-05-04 02:41 | 39.11269 | -112.65660 | 30768 ft | 523 kts | 29° |
| 2026-05-04 02:42 | 39.17599 | -112.61041 | 30771 ft | 523 kts | 29° |
| 2026-05-04 02:42 | 39.23934 | -112.56409 | 30777 ft | 523 kts | 29° |
| 2026-05-04 02:43 | 39.30264 | -112.51770 | 30777 ft | 523 kts | 29° |
| 2026-05-04 02:43 | 39.36588 | -112.47126 | 30776 ft | 521 kts | 29° |
| 2026-05-04 02:44 | 39.42870 | -112.42502 | 30788 ft | 520 kts | 29° |
| 2026-05-04 02:44 | 39.49162 | -112.37863 | 30793 ft | 520 kts | 29° |
| 2026-05-04 02:45 | 39.55449 | -112.33216 | 30794 ft | 521 kts | 29° |
| 2026-05-04 02:45 | 39.61718 | -112.28575 | 30807 ft | 516 kts | 30° |
| 2026-05-04 02:46 | 39.67934 | -112.23961 | 30813 ft | 515 kts | 30° |
| 2026-05-04 02:46 | 39.74158 | -112.19333 | 30818 ft | 516 kts | 30° |
| 2026-05-04 02:47 | 39.80387 | -112.14690 | 30815 ft | 516 kts | 30° |
| 2026-05-04 02:47 | 39.86597 | -112.10054 | 30815 ft | 513 kts | 30° |
| 2026-05-04 02:48 | 39.92738 | -112.05458 | 30818 ft | 513 kts | 30° |
| 2026-05-04 02:48 | 39.98928 | -112.00818 | 30818 ft | 513 kts | 30° |
| 2026-05-04 02:49 | 40.04987 | -111.95890 | 30815 ft | 513 kts | 32° |
| 2026-05-04 02:49 | 40.11018 | -111.90971 | 30883 ft | 508 kts | 32° |
| 2026-05-04 02:50 | 40.16998 | -111.86083 | 30906 ft | 508 kts | 32° |
| 2026-05-04 02:50 | 40.22986 | -111.81168 | 30916 ft | 508 kts | 32° |
| 2026-05-04 02:51 | 40.28964 | -111.76248 | 30915 ft | 507 kts | 32° |
| 2026-05-04 02:51 | 40.34925 | -111.71329 | 30903 ft | 505 kts | 32° |
| 2026-05-04 02:52 | 40.40854 | -111.66425 | 30885 ft | 504 kts | 32° |
| 2026-05-04 02:52 | 40.46783 | -111.61510 | 30864 ft | 504 kts | 32° |
| 2026-05-04 02:53 | 40.52711 | -111.56586 | 30846 ft | 504 kts | 32° |
| 2026-05-04 02:53 | 40.55676 | -111.54119 | 30953 ft | 504 kts | 32° |
| 2026-05-04 02:53 | 40.58637 | -111.51652 | 30949 ft | 504 kts | 32° |
| 2026-05-04 02:54 | 40.64553 | -111.46717 | 30934 ft | 503 kts | 32° |
| 2026-05-04 02:54 | 40.70453 | -111.41785 | 30911 ft | 503 kts | 32° |
| 2026-05-04 02:55 | 40.79326 | -111.34348 | 30879 ft | 504 kts | 32° |
| 2026-05-04 02:56 | 40.85196 | -111.29414 | 30880 ft | 503 kts | 32° |
| 2026-05-04 02:56 | 40.91144 | -111.24404 | 30892 ft | 503 kts | 32° |
| 2026-05-04 02:57 | 40.97010 | -111.19454 | 30911 ft | 503 kts | 32° |
| 2026-05-04 02:57 | 41.02912 | -111.14461 | 30951 ft | 504 kts | 32° |
| 2026-05-04 02:58 | 41.08777 | -111.09486 | 30992 ft | 498 kts | 32° |
| 2026-05-04 02:58 | 41.14621 | -111.04523 | 31024 ft | 500 kts | 32° |
| 2026-05-04 02:59 | 41.20477 | -110.99539 | 31045 ft | 500 kts | 32° |
| 2026-05-04 02:59 | 41.26323 | -110.94551 | 31045 ft | 499 kts | 32° |
| 2026-05-04 03:00 | 41.32170 | -110.89552 | 31032 ft | 500 kts | 32° |
| 2026-05-04 03:00 | 41.38027 | -110.84533 | 30997 ft | 501 kts | 32° |
| 2026-05-04 03:01 | 41.43877 | -110.79509 | 30959 ft | 500 kts | 32° |
| 2026-05-04 03:01 | 41.49730 | -110.74470 | 30892 ft | 501 kts | 32° |
| 2026-05-04 03:02 | 41.55578 | -110.69426 | 30883 ft | 500 kts | 31° |
| 2026-05-04 03:02 | 41.61430 | -110.64370 | 30884 ft | 501 kts | 31° |
| 2026-05-04 03:02 | 41.64357 | -110.61835 | 31003 ft | 502 kts | 31° |
| 2026-05-04 03:03 | 41.67286 | -110.59297 | 31023 ft | 502 kts | 31° |
| 2026-05-04 03:03 | 41.73139 | -110.54215 | 31060 ft | 501 kts | 31° |
| 2026-05-04 03:04 | 41.78981 | -110.49130 | 31062 ft | 500 kts | 31° |
| 2026-05-04 03:04 | 41.84803 | -110.44052 | 31064 ft | 499 kts | 31° |
| 2026-05-04 03:05 | 41.90575 | -110.39009 | 31024 ft | 499 kts | 31° |
| 2026-05-04 03:05 | 41.96390 | -110.33916 | 30981 ft | 499 kts | 31° |
| 2026-05-04 03:06 | 42.02202 | -110.28813 | 30939 ft | 499 kts | 31° |
| 2026-05-04 03:06 | 42.08004 | -110.23710 | 30894 ft | 498 kts | 31° |
| 2026-05-04 03:07 | 42.13799 | -110.18601 | 30879 ft | 498 kts | 31° |
| 2026-05-04 03:07 | 42.19599 | -110.13475 | 30891 ft | 498 kts | 31° |
| 2026-05-04 03:08 | 42.25396 | -110.08337 | 30908 ft | 499 kts | 30° |
| 2026-05-04 03:08 | 42.31177 | -110.03207 | 30932 ft | 497 kts | 30° |
| 2026-05-04 03:09 | 42.36956 | -109.98068 | 30957 ft | 498 kts | 30° |
| 2026-05-04 03:09 | 42.42734 | -109.92916 | 30974 ft | 498 kts | 30° |
| 2026-05-04 03:10 | 42.48513 | -109.87751 | 30980 ft | 498 kts | 30° |
| 2026-05-04 03:10 | 42.54285 | -109.82581 | 30968 ft | 497 kts | 30° |
| 2026-05-04 03:11 | 42.60057 | -109.77398 | 30970 ft | 498 kts | 30° |
| 2026-05-04 03:11 | 42.65832 | -109.72203 | 31005 ft | 498 kts | 30° |
| 2026-05-04 03:12 | 42.71601 | -109.67002 | 30889 ft | 497 kts | 30° |
| 2026-05-04 03:12 | 42.77359 | -109.61799 | 30904 ft | 497 kts | 30° |
| 2026-05-04 03:13 | 42.83118 | -109.56582 | 30901 ft | 497 kts | 30° |
| 2026-05-04 03:13 | 42.88872 | -109.51358 | 30916 ft | 497 kts | 30° |
| 2026-05-04 03:14 | 42.93656 | -109.47007 | 30935 ft | 497 kts | 31° |
| 2026-05-04 03:14 | 42.99356 | -109.41809 | 30919 ft | 489 kts | 31° |
| 2026-05-04 03:15 | 43.05034 | -109.36622 | 31010 ft | 494 kts | 31° |
| 2026-05-04 03:15 | 43.07890 | -109.34008 | 31328 ft | 494 kts | 31° |
| 2026-05-04 03:15 | 43.10751 | -109.31385 | 31598 ft | 496 kts | 31° |
| 2026-05-04 03:15 | 43.13623 | -109.28751 | 31862 ft | 498 kts | 31° |
| 2026-05-04 03:16 | 43.17444 | -109.25241 | 32180 ft | 501 kts | 31° |
| 2026-05-04 03:16 | 43.19399 | -109.23443 | 32406 ft | 501 kts | 31° |
| 2026-05-04 03:16 | 43.22287 | -109.20784 | 32749 ft | 500 kts | 31° |
| 2026-05-04 03:16 | 43.25171 | -109.18125 | 32857 ft | 498 kts | 31° |
| 2026-05-04 03:17 | 43.28045 | -109.15473 | 32856 ft | 497 kts | 31° |
| 2026-05-04 03:17 | 43.33780 | -109.10173 | 32826 ft | 497 kts | 32° |
| 2026-05-04 03:18 | 43.39521 | -109.04856 | 32844 ft | 496 kts | 32° |
| 2026-05-04 03:18 | 43.45206 | -108.99575 | 32812 ft | 492 kts | 32° |
| 2026-05-04 03:19 | 43.50886 | -108.94287 | 32836 ft | 494 kts | 32° |
| 2026-05-04 03:19 | 43.56582 | -108.88974 | 32834 ft | 494 kts | 32° |
| 2026-05-04 03:20 | 43.62237 | -108.83687 | 32866 ft | 494 kts | 33° |
| 2026-05-04 03:20 | 43.67895 | -108.78383 | 32836 ft | 488 kts | 33° |
| 2026-05-04 03:21 | 43.73491 | -108.73125 | 32863 ft | 487 kts | 33° |
| 2026-05-04 03:21 | 43.79096 | -108.67848 | 32871 ft | 488 kts | 33° |
| 2026-05-04 03:22 | 43.84699 | -108.62560 | 32875 ft | 486 kts | 33° |
| 2026-05-04 03:22 | 43.90254 | -108.57305 | 32855 ft | 482 kts | 33° |
| 2026-05-04 03:23 | 43.95773 | -108.52073 | 32813 ft | 479 kts | 33° |
| 2026-05-04 03:23 | 44.01264 | -108.46854 | 32793 ft | 477 kts | 33° |
| 2026-05-04 03:24 | 44.06763 | -108.41618 | 32820 ft | 482 kts | 33° |
| 2026-05-04 03:24 | 44.12296 | -108.36335 | 32822 ft | 482 kts | 33° |
| 2026-05-04 03:25 | 44.17819 | -108.31051 | 32821 ft | 482 kts | 33° |
| 2026-05-04 03:25 | 44.23338 | -108.25757 | 32814 ft | 481 kts | 33° |
| 2026-05-04 03:26 | 44.28860 | -108.20450 | 32821 ft | 483 kts | 33° |
| 2026-05-04 03:26 | 44.34399 | -108.15114 | 32849 ft | 484 kts | 33° |
| 2026-05-04 03:27 | 44.39945 | -108.09764 | 32861 ft | 485 kts | 33° |
| 2026-05-04 03:27 | 44.45491 | -108.04403 | 32866 ft | 484 kts | 33° |
| 2026-05-04 03:28 | 44.51024 | -107.99043 | 32860 ft | 484 kts | 33° |
| 2026-05-04 03:28 | 44.56536 | -107.93734 | 32856 ft | 483 kts | 32° |
| 2026-05-04 03:29 | 44.62074 | -107.88420 | 32847 ft | 482 kts | 32° |
| 2026-05-04 03:29 | 44.67600 | -107.83104 | 32832 ft | 481 kts | 32° |
| 2026-05-04 03:30 | 44.73109 | -107.77787 | 32821 ft | 480 kts | 33° |
| 2026-05-04 03:30 | 44.78609 | -107.72465 | 32845 ft | 480 kts | 32° |
| 2026-05-04 03:31 | 44.84102 | -107.67136 | 32846 ft | 479 kts | 32° |
| 2026-05-04 03:31 | 44.89592 | -107.61801 | 32844 ft | 479 kts | 32° |
| 2026-05-04 03:32 | 44.95081 | -107.56452 | 32845 ft | 479 kts | 32° |
| 2026-05-04 03:32 | 45.00566 | -107.51094 | 32827 ft | 479 kts | 32° |
| 2026-05-04 03:33 | 45.06054 | -107.45720 | 32817 ft | 480 kts | 32° |
| 2026-05-04 03:33 | 45.11547 | -107.40329 | 32813 ft | 481 kts | 32° |
| 2026-05-04 03:34 | 45.17047 | -107.34919 | 32816 ft | 481 kts | 32° |
| 2026-05-04 03:34 | 45.22545 | -107.29497 | 32823 ft | 482 kts | 32° |
| 2026-05-04 03:35 | 45.28045 | -107.24060 | 32818 ft | 482 kts | 32° |
| 2026-05-04 03:35 | 45.33546 | -107.18608 | 32820 ft | 482 kts | 32° |
| 2026-05-04 03:36 | 45.39042 | -107.13148 | 32813 ft | 482 kts | 32° |
| 2026-05-04 03:36 | 45.44538 | -107.07676 | 32811 ft | 482 kts | 32° |
| 2026-05-04 03:37 | 45.50025 | -107.02199 | 32813 ft | 482 kts | 32° |
| 2026-05-04 03:37 | 45.55511 | -106.96710 | 32815 ft | 482 kts | 32° |
| 2026-05-04 03:38 | 45.60995 | -106.91209 | 32808 ft | 481 kts | 32° |
| 2026-05-04 03:38 | 45.66472 | -106.85703 | 32805 ft | 481 kts | 32° |
| 2026-05-04 03:39 | 45.71942 | -106.80190 | 32807 ft | 481 kts | 32° |
| 2026-05-04 03:39 | 45.77409 | -106.74664 | 32804 ft | 481 kts | 32° |
| 2026-05-04 03:40 | 45.82872 | -106.69131 | 32793 ft | 481 kts | 31° |
| 2026-05-04 03:40 | 45.88332 | -106.63589 | 32797 ft | 481 kts | 31° |
| 2026-05-04 03:41 | 45.93786 | -106.58038 | 32784 ft | 481 kts | 32° |
| 2026-05-04 03:41 | 45.99236 | -106.52477 | 32796 ft | 480 kts | 31° |
| 2026-05-04 03:42 | 46.04677 | -106.46912 | 32810 ft | 480 kts | 31° |
| 2026-05-04 03:42 | 46.10118 | -106.41332 | 32766 ft | 480 kts | 31° |
| 2026-05-04 03:43 | 46.15559 | -106.35740 | 32767 ft | 480 kts | 31° |
| 2026-05-04 03:43 | 46.20956 | -106.30179 | 32766 ft | 480 kts | 31° |
| 2026-05-04 03:44 | 46.26435 | -106.24519 | 32759 ft | 481 kts | 31° |
| 2026-05-04 03:44 | 46.31839 | -106.18922 | 32756 ft | 482 kts | 31° |
| 2026-05-04 03:45 | 46.37326 | -106.13226 | 32749 ft | 482 kts | 31° |
| 2026-05-04 03:45 | 46.42738 | -106.07594 | 32750 ft | 482 kts | 31° |
| 2026-05-04 03:46 | 46.48188 | -106.01911 | 32743 ft | 483 kts | 30° |
| 2026-05-04 03:46 | 46.53463 | -105.95712 | 32741 ft | 486 kts | 35° |
| 2026-05-04 03:47 | 46.58632 | -105.89370 | 32757 ft | 486 kts | 34° |
| 2026-05-04 03:47 | 46.63771 | -105.83069 | 32750 ft | 486 kts | 35° |
| 2026-05-04 03:48 | 46.68933 | -105.76697 | 32746 ft | 487 kts | 35° |
| 2026-05-04 03:48 | 46.74095 | -105.70298 | 32741 ft | 487 kts | 34° |
| 2026-05-04 03:49 | 46.79250 | -105.63894 | 32762 ft | 487 kts | 34° |
| 2026-05-04 03:49 | 46.84409 | -105.57469 | 32734 ft | 487 kts | 34° |
| 2026-05-04 03:50 | 46.89563 | -105.51032 | 32728 ft | 487 kts | 34° |
| 2026-05-04 03:50 | 46.94709 | -105.44589 | 32727 ft | 487 kts | 34° |
| 2026-05-04 03:51 | 46.99855 | -105.38127 | 32725 ft | 488 kts | 34° |
| 2026-05-04 03:51 | 47.05003 | -105.31648 | 32709 ft | 488 kts | 34° |
| 2026-05-04 03:52 | 47.10157 | -105.25144 | 32704 ft | 489 kts | 34° |
| 2026-05-04 03:52 | 47.15309 | -105.18624 | 32707 ft | 489 kts | 34° |
| 2026-05-04 03:53 | 47.20462 | -105.12087 | 32714 ft | 490 kts | 34° |
| 2026-05-04 03:53 | 47.25616 | -105.05528 | 32732 ft | 490 kts | 33° |
| 2026-05-04 03:54 | 47.30770 | -104.98954 | 32731 ft | 490 kts | 33° |
| 2026-05-04 03:54 | 47.35923 | -104.92364 | 32719 ft | 490 kts | 33° |
| 2026-05-04 03:55 | 47.41070 | -104.85763 | 32714 ft | 490 kts | 34° |
| 2026-05-04 03:55 | 47.46207 | -104.79158 | 32707 ft | 490 kts | 34° |
| 2026-05-04 03:56 | 47.51341 | -104.72535 | 32722 ft | 490 kts | 33° |
| 2026-05-04 03:56 | 47.56437 | -104.65948 | 32713 ft | 489 kts | 33° |
| 2026-05-04 03:57 | 47.61555 | -104.59312 | 32715 ft | 488 kts | 33° |
| 2026-05-04 03:57 | 47.66662 | -104.52675 | 32698 ft | 488 kts | 33° |
| 2026-05-04 03:58 | 47.74304 | -104.42708 | 32748 ft | 488 kts | 33° |
| 2026-05-04 03:58 | 47.79401 | -104.36038 | 32709 ft | 488 kts | 33° |
| 2026-05-04 03:59 | 47.84491 | -104.29359 | 32689 ft | 488 kts | 33° |
| 2026-05-04 03:59 | 47.89573 | -104.22671 | 32682 ft | 487 kts | 33° |
| 2026-05-04 04:00 | 47.94647 | -104.15977 | 32678 ft | 487 kts | 33° |
| 2026-05-04 04:00 | 47.98860 | -104.10404 | 32682 ft | 488 kts | 32° |
| 2026-05-04 04:01 | 48.04799 | -104.02528 | 32688 ft | 488 kts | 32° |
| 2026-05-04 04:01 | 48.09016 | -103.96920 | 32698 ft | 489 kts | 32° |
| 2026-05-04 04:02 | 48.14094 | -103.90149 | 32713 ft | 489 kts | 32° |
| 2026-05-04 04:02 | 48.19173 | -103.83358 | 32724 ft | 489 kts | 32° |
| 2026-05-04 04:03 | 48.24257 | -103.76548 | 32717 ft | 491 kts | 32° |
| 2026-05-04 04:03 | 48.29442 | -103.69930 | 32727 ft | 486 kts | 28° |
| 2026-05-04 04:04 | 48.34761 | -103.63660 | 32722 ft | 486 kts | 28° |
| 2026-05-04 04:04 | 48.40064 | -103.57328 | 32715 ft | 487 kts | 28° |
| 2026-05-04 04:05 | 48.45348 | -103.50942 | 32698 ft | 487 kts | 28° |
| 2026-05-04 04:05 | 48.50633 | -103.44523 | 32701 ft | 488 kts | 28° |
| 2026-05-04 04:06 | 48.55882 | -103.38128 | 32681 ft | 489 kts | 27° |
| 2026-05-04 04:06 | 48.61174 | -103.31665 | 32686 ft | 489 kts | 27° |
| 2026-05-04 04:07 | 48.66460 | -103.25191 | 32677 ft | 489 kts | 27° |
| 2026-05-04 04:07 | 48.71736 | -103.18711 | 32681 ft | 489 kts | 28° |
| 2026-05-04 04:08 | 48.77022 | -103.12204 | 32652 ft | 490 kts | 27° |
| 2026-05-04 04:08 | 48.82335 | -103.05645 | 32641 ft | 494 kts | 27° |
| 2026-05-04 04:09 | 48.87671 | -102.99037 | 32660 ft | 496 kts | 27° |
| 2026-05-04 04:09 | 48.93024 | -102.92388 | 32674 ft | 498 kts | 27° |
| 2026-05-04 04:10 | 48.98395 | -102.85696 | 32673 ft | 500 kts | 27° |
| 2026-05-04 04:10 | 49.03776 | -102.78974 | 32740 ft | 501 kts | 28° |
| 2026-05-04 04:11 | 49.06480 | -102.75593 | 32628 ft | 504 kts | 28° |
| 2026-05-04 04:11 | 49.09186 | -102.72199 | 32643 ft | 504 kts | 28° |
| 2026-05-04 04:11 | 49.14609 | -102.65382 | 32677 ft | 506 kts | 28° |
| 2026-05-04 04:12 | 49.20041 | -102.58536 | 32675 ft | 507 kts | 28° |
| 2026-05-04 04:12 | 49.25477 | -102.51664 | 32670 ft | 507 kts | 28° |
| 2026-05-04 04:13 | 49.30888 | -102.44809 | 32670 ft | 510 kts | 29° |
| 2026-05-04 04:13 | 49.36380 | -102.37829 | 32608 ft | 513 kts | 29° |
| 2026-05-04 04:14 | 49.41877 | -102.30815 | 32622 ft | 515 kts | 29° |
| 2026-05-04 04:14 | 49.47387 | -102.23766 | 32627 ft | 516 kts | 29° |
| 2026-05-04 04:15 | 49.52911 | -102.16679 | 32658 ft | 518 kts | 30° |
| 2026-05-04 04:15 | 49.58459 | -102.09544 | 32637 ft | 520 kts | 30° |
| 2026-05-04 04:16 | 49.64005 | -102.02380 | 32641 ft | 520 kts | 30° |
| 2026-05-04 04:16 | 49.69541 | -101.95209 | 32633 ft | 519 kts | 30° |
| 2026-05-04 04:17 | 49.75068 | -101.88030 | 32630 ft | 519 kts | 30° |
| 2026-05-04 04:17 | 49.80588 | -101.80840 | 32636 ft | 519 kts | 31° |
| 2026-05-04 04:18 | 49.86093 | -101.73648 | 32652 ft | 517 kts | 32° |
| 2026-05-04 04:18 | 49.91573 | -101.66460 | 32614 ft | 515 kts | 32° |
| 2026-05-04 04:19 | 49.97026 | -101.59288 | 32611 ft | 513 kts | 32° |
| 2026-05-04 04:19 | 50.02460 | -101.52121 | 32597 ft | 512 kts | 32° |
| 2026-05-04 04:20 | 50.07886 | -101.44946 | 32590 ft | 512 kts | 32° |
| 2026-05-04 04:20 | 50.13304 | -101.37757 | 32613 ft | 511 kts | 33° |
| 2026-05-04 04:21 | 50.18707 | -101.30562 | 32613 ft | 510 kts | 33° |
| 2026-05-04 04:21 | 50.24091 | -101.23371 | 32604 ft | 509 kts | 33° |
| 2026-05-04 04:22 | 50.29474 | -101.16163 | 32600 ft | 509 kts | 33° |
| 2026-05-04 04:22 | 50.34820 | -101.08982 | 32606 ft | 511 kts | 33° |
| 2026-05-04 04:23 | 50.40210 | -101.01719 | 32601 ft | 511 kts | 34° |
| 2026-05-04 04:23 | 50.45600 | -100.94429 | 32592 ft | 511 kts | 34° |
| 2026-05-04 04:24 | 50.50981 | -100.87131 | 32593 ft | 511 kts | 34° |
| 2026-05-04 04:24 | 50.56360 | -100.79814 | 32579 ft | 511 kts | 34° |
| 2026-05-04 04:25 | 50.61735 | -100.72479 | 32563 ft | 512 kts | 34° |
| 2026-05-04 04:25 | 50.67114 | -100.65116 | 32562 ft | 512 kts | 34° |
| 2026-05-04 04:26 | 50.72493 | -100.57728 | 32565 ft | 513 kts | 34° |
| 2026-05-04 04:26 | 50.77871 | -100.50319 | 32557 ft | 513 kts | 35° |
| 2026-05-04 04:27 | 50.83247 | -100.42889 | 32561 ft | 514 kts | 35° |
| 2026-05-04 04:27 | 50.88625 | -100.35434 | 32605 ft | 514 kts | 36° |
| 2026-05-04 04:28 | 50.93974 | -100.27992 | 32543 ft | 508 kts | 36° |
| 2026-05-04 04:28 | 50.99232 | -100.20653 | 32542 ft | 507 kts | 36° |
| 2026-05-04 04:29 | 51.04527 | -100.13253 | 32542 ft | 508 kts | 36° |
| 2026-05-04 04:29 | 51.09822 | -100.05833 | 32539 ft | 507 kts | 36° |
| 2026-05-04 04:30 | 51.15342 | -99.98954 | 32593 ft | 502 kts | 30° |
| 2026-05-04 04:30 | 51.21067 | -99.92580 | 32558 ft | 502 kts | 30° |
| 2026-05-04 04:31 | 51.26736 | -99.86094 | 32546 ft | 501 kts | 31° |
| 2026-05-04 04:31 | 51.32369 | -99.79545 | 32541 ft | 500 kts | 31° |
| 2026-05-04 04:32 | 51.37984 | -99.72979 | 32520 ft | 500 kts | 31° |
| 2026-05-04 04:32 | 51.43588 | -99.66403 | 32545 ft | 499 kts | 32° |
| 2026-05-04 04:33 | 51.49178 | -99.59824 | 32503 ft | 498 kts | 32° |
| 2026-05-04 04:33 | 51.54761 | -99.53230 | 32509 ft | 498 kts | 32° |
| 2026-05-04 04:34 | 51.60343 | -99.46617 | 32511 ft | 498 kts | 32° |
| 2026-05-04 04:34 | 51.65922 | -99.39988 | 32519 ft | 499 kts | 32° |
| 2026-05-04 04:35 | 51.71502 | -99.33338 | 32536 ft | 499 kts | 32° |
| 2026-05-04 04:35 | 51.77077 | -99.26672 | 32522 ft | 499 kts | 32° |
| 2026-05-04 04:36 | 51.82644 | -99.19993 | 32522 ft | 499 kts | 32° |
| 2026-05-04 04:36 | 51.88209 | -99.13297 | 32511 ft | 498 kts | 32° |
| 2026-05-04 04:37 | 51.99328 | -98.99855 | 32504 ft | 498 kts | 32° |
| 2026-05-04 04:38 | 52.04880 | -98.93110 | 32511 ft | 498 kts | 33° |
| 2026-05-04 04:38 | 52.10425 | -98.86352 | 32517 ft | 498 kts | 33° |
| 2026-05-04 04:39 | 52.15930 | -98.79623 | 32489 ft | 498 kts | 33° |
| 2026-05-04 04:39 | 52.21471 | -98.72827 | 32508 ft | 499 kts | 33° |
| 2026-05-04 04:40 | 52.27011 | -98.66011 | 32487 ft | 499 kts | 33° |
| 2026-05-04 04:40 | 52.32542 | -98.59183 | 32489 ft | 498 kts | 33° |
| 2026-05-04 04:41 | 52.38073 | -98.52335 | 32480 ft | 498 kts | 33° |
| 2026-05-04 04:41 | 52.43597 | -98.45473 | 32490 ft | 499 kts | 33° |
| 2026-05-04 04:42 | 52.49124 | -98.38585 | 32472 ft | 499 kts | 33° |
| 2026-05-04 04:42 | 52.54650 | -98.31676 | 32476 ft | 499 kts | 33° |
| 2026-05-04 04:43 | 52.60170 | -98.24752 | 32481 ft | 499 kts | 33° |
| 2026-05-04 04:43 | 52.65687 | -98.17809 | 32464 ft | 499 kts | 33° |
| 2026-05-04 04:44 | 52.71201 | -98.10846 | 32469 ft | 499 kts | 33° |
| 2026-05-04 04:44 | 52.76712 | -98.03866 | 32457 ft | 500 kts | 34° |
| 2026-05-04 04:45 | 52.82224 | -97.96860 | 32462 ft | 500 kts | 34° |
| 2026-05-04 04:47 | 53.01428 | -97.72275 | 32453 ft | 499 kts | 34° |
| 2026-05-04 04:47 | 53.06915 | -97.65197 | 32447 ft | 499 kts | 34° |
| 2026-05-04 04:48 | 53.12400 | -97.58099 | 32451 ft | 499 kts | 34° |
| 2026-05-04 04:49 | 53.26087 | -97.40282 | 32434 ft | 499 kts | 35° |
| 2026-05-04 04:49 | 53.31553 | -97.33125 | 32424 ft | 499 kts | 35° |
| 2026-05-04 04:50 | 53.37014 | -97.25951 | 32434 ft | 499 kts | 35° |
| 2026-05-04 04:50 | 53.42473 | -97.18756 | 32418 ft | 499 kts | 35° |
| 2026-05-04 04:51 | 53.47930 | -97.11539 | 32423 ft | 499 kts | 35° |
| 2026-05-04 04:51 | 53.52460 | -97.05529 | 32421 ft | 499 kts | 35° |
| 2026-05-04 04:52 | 53.57910 | -96.98278 | 32437 ft | 499 kts | 36° |
| 2026-05-04 04:52 | 53.63352 | -96.91010 | 32439 ft | 499 kts | 36° |
| 2026-05-04 04:53 | 53.68787 | -96.83728 | 32426 ft | 499 kts | 36° |
| 2026-05-04 04:53 | 53.74215 | -96.76432 | 32434 ft | 499 kts | 36° |
| 2026-05-04 04:54 | 53.79644 | -96.69108 | 32423 ft | 499 kts | 36° |
| 2026-05-04 04:54 | 53.85064 | -96.61773 | 32430 ft | 499 kts | 36° |
| 2026-05-04 04:55 | 53.90483 | -96.54413 | 32442 ft | 499 kts | 36° |
| 2026-05-04 04:55 | 53.95891 | -96.47043 | 32432 ft | 499 kts | 37° |
| 2026-05-04 04:56 | 54.01299 | -96.39648 | 32442 ft | 499 kts | 37° |
| 2026-05-04 04:56 | 54.06699 | -96.32238 | 32439 ft | 499 kts | 37° |
| 2026-05-04 04:57 | 54.12099 | -96.24802 | 32450 ft | 499 kts | 37° |
| 2026-05-04 04:57 | 54.17499 | -96.17342 | 32446 ft | 499 kts | 37° |
| 2026-05-04 04:58 | 54.22891 | -96.09866 | 32453 ft | 499 kts | 37° |
| 2026-05-04 04:58 | 54.28278 | -96.02370 | 32450 ft | 499 kts | 37° |
| 2026-05-04 04:59 | 54.33662 | -95.94853 | 32464 ft | 499 kts | 37° |
| 2026-05-04 04:59 | 54.39039 | -95.87319 | 32470 ft | 499 kts | 37° |
| 2026-05-04 05:00 | 54.44418 | -95.79757 | 32481 ft | 500 kts | 37° |
| 2026-05-04 05:01 | 54.52449 | -95.68416 | 32488 ft | 500 kts | 37° |
| 2026-05-04 05:01 | 54.57826 | -95.60789 | 32486 ft | 501 kts | 38° |
| 2026-05-04 05:02 | 54.63199 | -95.53144 | 32504 ft | 501 kts | 38° |
| 2026-05-04 05:02 | 54.68568 | -95.45474 | 32500 ft | 501 kts | 38° |
| 2026-05-04 05:03 | 54.73932 | -95.37781 | 32481 ft | 501 kts | 38° |
| 2026-05-04 05:04 | 54.84649 | -95.22339 | 32493 ft | 501 kts | 38° |
| 2026-05-04 05:04 | 54.90001 | -95.14596 | 32501 ft | 501 kts | 38° |
| 2026-05-04 05:06 | 55.11237 | -94.83126 | 32557 ft | 501 kts | 39° |
| 2026-05-04 05:07 | 55.16539 | -94.75200 | 32541 ft | 501 kts | 39° |
| 2026-05-04 05:07 | 55.21824 | -94.67227 | 32550 ft | 502 kts | 40° |
| 2026-05-04 05:09 | 55.45496 | -94.31096 | 32581 ft | 502 kts | 40° |
| 2026-05-04 05:10 | 55.50749 | -94.22994 | 32594 ft | 502 kts | 40° |
| 2026-05-04 05:10 | 55.56000 | -94.14870 | 32591 ft | 502 kts | 40° |
| 2026-05-04 05:11 | 55.61242 | -94.06727 | 32588 ft | 501 kts | 40° |
| 2026-05-04 05:11 | 55.66477 | -93.98564 | 32591 ft | 501 kts | 40° |
| 2026-05-04 05:12 | 55.71706 | -93.90381 | 32588 ft | 501 kts | 41° |
| 2026-05-04 05:12 | 55.76925 | -93.82182 | 32610 ft | 501 kts | 41° |
| 2026-05-04 05:13 | 55.82139 | -93.73962 | 32604 ft | 501 kts | 41° |
| 2026-05-04 05:13 | 55.87343 | -93.65727 | 32611 ft | 500 kts | 41° |
| 2026-05-04 05:14 | 55.92537 | -93.57477 | 32609 ft | 500 kts | 41° |
| 2026-05-04 05:14 | 55.97725 | -93.49205 | 32616 ft | 500 kts | 41° |
| 2026-05-04 05:15 | 56.02911 | -93.40906 | 32614 ft | 500 kts | 41° |
| 2026-05-04 05:15 | 56.08089 | -93.32590 | 32623 ft | 500 kts | 41° |
| 2026-05-04 05:16 | 56.13263 | -93.24246 | 32621 ft | 500 kts | 41° |
| 2026-05-04 05:16 | 56.18430 | -93.15882 | 32617 ft | 500 kts | 41° |
| 2026-05-04 05:17 | 56.23595 | -93.07491 | 32621 ft | 500 kts | 41° |
| 2026-05-04 05:17 | 56.28715 | -92.99141 | 32639 ft | 500 kts | 41° |
| 2026-05-04 05:18 | 56.33863 | -92.90714 | 32632 ft | 500 kts | 41° |
| 2026-05-04 05:18 | 56.39002 | -92.82267 | 32636 ft | 500 kts | 42° |
| 2026-05-04 05:19 | 56.44131 | -92.73806 | 32631 ft | 499 kts | 42° |
| 2026-05-04 05:19 | 56.49251 | -92.65328 | 32627 ft | 499 kts | 42° |
| 2026-05-04 05:20 | 56.54366 | -92.56825 | 32626 ft | 499 kts | 42° |
| 2026-05-04 05:20 | 56.59468 | -92.48312 | 32638 ft | 498 kts | 42° |
| 2026-05-04 05:21 | 56.64560 | -92.39782 | 32639 ft | 498 kts | 43° |
| 2026-05-04 05:21 | 56.69642 | -92.31236 | 32631 ft | 497 kts | 42° |
| 2026-05-04 05:22 | 56.74712 | -92.22677 | 32627 ft | 497 kts | 43° |
| 2026-05-04 05:22 | 56.79775 | -92.14099 | 32626 ft | 497 kts | 43° |
| 2026-05-04 05:23 | 56.84826 | -92.05507 | 32636 ft | 496 kts | 43° |
| 2026-05-04 05:23 | 56.89833 | -91.96957 | 32633 ft | 495 kts | 43° |
| 2026-05-04 05:24 | 56.94861 | -91.88337 | 32627 ft | 495 kts | 43° |
| 2026-05-04 05:24 | 56.99880 | -91.79699 | 32622 ft | 495 kts | 43° |
| 2026-05-04 05:25 | 57.04891 | -91.71043 | 32624 ft | 495 kts | 43° |
| 2026-05-04 05:25 | 57.09894 | -91.62365 | 32617 ft | 495 kts | 43° |
| 2026-05-04 05:26 | 57.14886 | -91.53675 | 32635 ft | 494 kts | 44° |
| 2026-05-04 05:26 | 57.19866 | -91.44968 | 32628 ft | 493 kts | 44° |
| 2026-05-04 05:28 | 57.39685 | -91.09985 | 32628 ft | 492 kts | 44° |
| 2026-05-04 05:29 | 57.44614 | -91.01199 | 32621 ft | 491 kts | 44° |
| 2026-05-04 05:29 | 57.49530 | -90.92402 | 32625 ft | 490 kts | 44° |
| 2026-05-04 05:31 | 57.69070 | -90.57088 | 32614 ft | 490 kts | 44° |
| 2026-05-04 05:32 | 57.73949 | -90.48182 | 32620 ft | 490 kts | 44° |
| 2026-05-04 05:33 | 57.81247 | -90.34794 | 32603 ft | 490 kts | 45° |
| 2026-05-04 05:33 | 57.86103 | -90.25843 | 32594 ft | 490 kts | 45° |
| 2026-05-04 05:34 | 57.90956 | -90.16867 | 32601 ft | 489 kts | 45° |
| 2026-05-04 05:34 | 57.95804 | -90.07879 | 32610 ft | 489 kts | 45° |
| 2026-05-04 05:35 | 58.00622 | -89.98830 | 32611 ft | 489 kts | 47° |
| 2026-05-04 05:35 | 58.05360 | -89.89634 | 32583 ft | 489 kts | 45° |
| 2026-05-04 05:36 | 58.10187 | -89.80566 | 32583 ft | 489 kts | 45° |
| 2026-05-04 05:36 | 58.14995 | -89.71446 | 32587 ft | 490 kts | 45° |
| 2026-05-04 05:37 | 58.19793 | -89.62276 | 32599 ft | 490 kts | 45° |
| 2026-05-04 05:37 | 58.24586 | -89.53073 | 32600 ft | 490 kts | 46° |
| 2026-05-04 05:38 | 58.31757 | -89.39215 | 32592 ft | 490 kts | 46° |
| 2026-05-04 05:38 | 58.36525 | -89.29941 | 32588 ft | 490 kts | 46° |
| 2026-05-04 05:39 | 58.43661 | -89.15992 | 32584 ft | 490 kts | 46° |
| 2026-05-04 05:40 | 58.50772 | -89.02005 | 32587 ft | 489 kts | 46° |
| 2026-05-04 05:40 | 58.55499 | -88.92660 | 32584 ft | 488 kts | 46° |
| 2026-05-04 05:41 | 58.59419 | -88.84879 | 32579 ft | 488 kts | 46° |
| 2026-05-04 05:41 | 58.64919 | -88.73918 | 32579 ft | 488 kts | 47° |
| 2026-05-04 05:42 | 58.68826 | -88.66098 | 32563 ft | 488 kts | 47° |
| 2026-05-04 05:42 | 58.73523 | -88.56663 | 32570 ft | 488 kts | 47° |
| 2026-05-04 05:43 | 58.78214 | -88.47201 | 32570 ft | 489 kts | 47° |
| 2026-05-04 05:45 | 58.96946 | -88.09015 | 32580 ft | 490 kts | 47° |
| 2026-05-04 05:47 | 59.15524 | -87.70497 | 32576 ft | 488 kts | 47° |
| 2026-05-04 05:47 | 59.20150 | -87.60803 | 32573 ft | 488 kts | 48° |
| 2026-05-04 05:48 | 59.24763 | -87.51095 | 32573 ft | 488 kts | 48° |
| 2026-05-04 05:48 | 59.29373 | -87.41354 | 32569 ft | 488 kts | 48° |
| 2026-05-04 05:49 | 59.33968 | -87.31601 | 32577 ft | 487 kts | 48° |
| 2026-05-04 05:49 | 59.38553 | -87.21829 | 32575 ft | 487 kts | 48° |
| 2026-05-04 05:51 | 59.56802 | -86.82506 | 32565 ft | 486 kts | 49° |
| 2026-05-04 05:52 | 59.61341 | -86.72620 | 32588 ft | 486 kts | 49° |
| 2026-05-04 05:52 | 59.65870 | -86.62711 | 32578 ft | 486 kts | 49° |
| 2026-05-04 05:54 | 59.83902 | -86.22832 | 32566 ft | 485 kts | 50° |
| 2026-05-04 05:55 | 59.88385 | -86.12811 | 32589 ft | 484 kts | 50° |
| 2026-05-04 05:55 | 59.92850 | -86.02782 | 32597 ft | 484 kts | 50° |
| 2026-05-04 05:56 | 59.97307 | -85.92727 | 32588 ft | 483 kts | 50° |
| 2026-05-04 05:56 | 60.01753 | -85.82654 | 32589 ft | 483 kts | 50° |
| 2026-05-04 05:57 | 60.06190 | -85.72556 | 32590 ft | 483 kts | 50° |
| 2026-05-04 05:57 | 60.10617 | -85.62437 | 32583 ft | 483 kts | 51° |
| 2026-05-04 05:58 | 60.15000 | -85.52375 | 32595 ft | 482 kts | 51° |
| 2026-05-04 05:58 | 60.19399 | -85.42230 | 32600 ft | 481 kts | 51° |
| 2026-05-04 05:59 | 60.23787 | -85.32066 | 32609 ft | 481 kts | 51° |
| 2026-05-04 05:59 | 60.28163 | -85.21884 | 32610 ft | 480 kts | 51° |
| 2026-05-04 06:00 | 60.32529 | -85.11680 | 32618 ft | 480 kts | 51° |
| 2026-05-04 06:00 | 60.36882 | -85.01459 | 32597 ft | 480 kts | 51° |
| 2026-05-04 06:01 | 60.41221 | -84.91231 | 32630 ft | 479 kts | 52° |
| 2026-05-04 06:03 | 60.58379 | -84.50316 | 32621 ft | 477 kts | 52° |